sensor_id;sensor_type;location;lat;lon;timestamp;temperature;humidity
52211;DHT22;38179;52.756;6.906;2024-02-21T00:02:11;8.60;99.90
52211;DHT22;38179;52.756;6.906;2024-02-21T00:04:37;8.60;99.90
52211;DHT22;38179;52.756;6.906;2024-02-21T00:07:04;8.60;99.90
52211;DHT22;38179;52.756;6.906;2024-02-21T00:09:30;8.60;99.90
52211;DHT22;38179;52.756;6.906;2024-02-21T00:11:55;8.60;99.90
52211;DHT22;38179;52.756;6.906;2024-02-21T00:14:21;8.60;99.90
52211;DHT22;38179;52.756;6.906;2024-02-21T00:16:47;8.60;99.90
52211;DHT22;38179;52.756;6.906;2024-02-21T00:19:13;8.70;99.90
52211;DHT22;38179;52.756;6.906;2024-02-21T00:21:40;8.70;99.90
52211;DHT22;38179;52.756;6.906;2024-02-21T00:24:06;8.70;99.90
52211;DHT22;38179;52.756;6.906;2024-02-21T00:26:31;8.70;99.90
52211;DHT22;38179;52.756;6.906;2024-02-21T00:28:57;8.70;99.90
52211;DHT22;38179;52.756;6.906;2024-02-21T00:31:23;8.70;99.90
52211;DHT22;38179;52.756;6.906;2024-02-21T00:33:48;8.70;99.90
52211;DHT22;38179;52.756;6.906;2024-02-21T00:36:14;8.70;99.90
52211;DHT22;38179;52.756;6.906;2024-02-21T00:38:41;8.70;99.90
52211;DHT22;38179;52.756;6.906;2024-02-21T00:41:06;8.70;99.90
52211;DHT22;38179;52.756;6.906;2024-02-21T00:43:32;8.70;99.90
52211;DHT22;38179;52.756;6.906;2024-02-21T00:45:57;8.70;99.90
52211;DHT22;38179;52.756;6.906;2024-02-21T00:48:23;8.70;99.90
52211;DHT22;38179;52.756;6.906;2024-02-21T00:50:49;8.80;99.90
52211;DHT22;38179;52.756;6.906;2024-02-21T00:53:14;8.70;99.90
52211;DHT22;38179;52.756;6.906;2024-02-21T00:55:40;8.70;99.90
52211;DHT22;38179;52.756;6.906;2024-02-21T00:58:06;8.70;99.90
52211;DHT22;38179;52.756;6.906;2024-02-21T01:00:32;8.70;99.90
52211;DHT22;38179;52.756;6.906;2024-02-21T01:02:57;8.70;99.90
52211;DHT22;38179;52.756;6.906;2024-02-21T01:05:23;8.70;99.90
52211;DHT22;38179;52.756;6.906;2024-02-21T01:07:49;8.70;99.90
52211;DHT22;38179;52.756;6.906;2024-02-21T01:10:14;8.70;99.90
52211;DHT22;38179;52.756;6.906;2024-02-21T01:12:40;8.70;99.90
52211;DHT22;38179;52.756;6.906;2024-02-21T01:15:06;8.70;99.90
52211;DHT22;38179;52.756;6.906;2024-02-21T01:17:31;8.70;99.90
52211;DHT22;38179;52.756;6.906;2024-02-21T01:19:57;8.70;99.90
52211;DHT22;38179;52.756;6.906;2024-02-21T01:22:23;8.70;99.90
52211;DHT22;38179;52.756;6.906;2024-02-21T01:24:49;8.70;99.90
52211;DHT22;38179;52.756;6.906;2024-02-21T01:27:14;8.70;99.90
52211;DHT22;38179;52.756;6.906;2024-02-21T01:29:40;8.70;99.90
52211;DHT22;38179;52.756;6.906;2024-02-21T01:32:06;8.70;99.90
52211;DHT22;38179;52.756;6.906;2024-02-21T01:34:31;8.70;99.90
52211;DHT22;38179;52.756;6.906;2024-02-21T01:36:57;8.70;99.90
52211;DHT22;38179;52.756;6.906;2024-02-21T01:39:23;8.70;99.90
52211;DHT22;38179;52.756;6.906;2024-02-21T01:41:48;8.70;99.90
52211;DHT22;38179;52.756;6.906;2024-02-21T01:44:14;8.70;99.90
52211;DHT22;38179;52.756;6.906;2024-02-21T01:46:40;8.70;99.90
52211;DHT22;38179;52.756;6.906;2024-02-21T01:49:06;8.70;99.90
52211;DHT22;38179;52.756;6.906;2024-02-21T01:51:32;8.70;99.90
52211;DHT22;38179;52.756;6.906;2024-02-21T01:53:58;8.70;99.90
52211;DHT22;38179;52.756;6.906;2024-02-21T01:56:24;8.70;99.90
52211;DHT22;38179;52.756;6.906;2024-02-21T01:58:51;8.70;99.90
52211;DHT22;38179;52.756;6.906;2024-02-21T02:01:17;8.60;99.90
52211;DHT22;38179;52.756;6.906;2024-02-21T02:03:45;8.70;99.90
52211;DHT22;38179;52.756;6.906;2024-02-21T02:06:10;8.60;99.90
52211;DHT22;38179;52.756;6.906;2024-02-21T02:08:37;8.70;99.90
52211;DHT22;38179;52.756;6.906;2024-02-21T02:11:03;8.70;99.90
52211;DHT22;38179;52.756;6.906;2024-02-21T02:13:29;8.70;99.90
52211;DHT22;38179;52.756;6.906;2024-02-21T02:15:54;8.60;99.90
52211;DHT22;38179;52.756;6.906;2024-02-21T02:18:20;8.60;99.90
52211;DHT22;38179;52.756;6.906;2024-02-21T02:20:47;8.70;99.90
52211;DHT22;38179;52.756;6.906;2024-02-21T02:23:29;8.60;99.90
52211;DHT22;38179;52.756;6.906;2024-02-21T02:25:55;8.60;99.90
52211;DHT22;38179;52.756;6.906;2024-02-21T02:28:21;8.60;99.90
52211;DHT22;38179;52.756;6.906;2024-02-21T02:30:47;8.60;99.90
52211;DHT22;38179;52.756;6.906;2024-02-21T02:33:13;8.60;99.90
52211;DHT22;38179;52.756;6.906;2024-02-21T02:35:39;8.60;99.90
52211;DHT22;38179;52.756;6.906;2024-02-21T02:38:05;8.50;99.90
52211;DHT22;38179;52.756;6.906;2024-02-21T02:40:33;8.50;99.90
52211;DHT22;38179;52.756;6.906;2024-02-21T02:42:58;8.50;99.90
52211;DHT22;38179;52.756;6.906;2024-02-21T02:45:24;8.50;99.90
52211;DHT22;38179;52.756;6.906;2024-02-21T02:47:52;8.40;99.90
52211;DHT22;38179;52.756;6.906;2024-02-21T02:50:20;8.40;99.90
52211;DHT22;38179;52.756;6.906;2024-02-21T02:52:45;8.40;99.90
52211;DHT22;38179;52.756;6.906;2024-02-21T02:55:11;8.30;99.90
52211;DHT22;38179;52.756;6.906;2024-02-21T02:57:37;8.30;99.90
52211;DHT22;38179;52.756;6.906;2024-02-21T03:00:03;8.30;99.90
52211;DHT22;38179;52.756;6.906;2024-02-21T03:02:29;8.30;99.90
52211;DHT22;38179;52.756;6.906;2024-02-21T03:04:57;8.30;99.90
52211;DHT22;38179;52.756;6.906;2024-02-21T03:07:25;8.30;99.90
52211;DHT22;38179;52.756;6.906;2024-02-21T03:09:51;8.30;99.90
52211;DHT22;38179;52.756;6.906;2024-02-21T03:12:17;8.20;99.90
52211;DHT22;38179;52.756;6.906;2024-02-21T03:14:53;8.20;99.90
52211;DHT22;38179;52.756;6.906;2024-02-21T03:17:19;8.20;99.90
52211;DHT22;38179;52.756;6.906;2024-02-21T03:19:44;8.20;99.90
52211;DHT22;38179;52.756;6.906;2024-02-21T03:22:13;8.20;99.90
52211;DHT22;38179;52.756;6.906;2024-02-21T03:24:39;8.20;99.90
52211;DHT22;38179;52.756;6.906;2024-02-21T03:27:04;8.20;99.90
52211;DHT22;38179;52.756;6.906;2024-02-21T03:29:30;8.20;99.90
52211;DHT22;38179;52.756;6.906;2024-02-21T03:31:55;8.20;99.90
52211;DHT22;38179;52.756;6.906;2024-02-21T03:34:21;8.30;99.90
52211;DHT22;38179;52.756;6.906;2024-02-21T03:36:47;8.10;99.90
52211;DHT22;38179;52.756;6.906;2024-02-21T03:39:12;8.20;99.90
52211;DHT22;38179;52.756;6.906;2024-02-21T03:41:38;8.30;99.90
52211;DHT22;38179;52.756;6.906;2024-02-21T03:44:04;8.20;99.90
52211;DHT22;38179;52.756;6.906;2024-02-21T03:46:30;8.20;99.90
52211;DHT22;38179;52.756;6.906;2024-02-21T03:48:56;8.30;99.90
52211;DHT22;38179;52.756;6.906;2024-02-21T03:51:22;8.20;99.90
52211;DHT22;38179;52.756;6.906;2024-02-21T03:53:48;8.30;99.90
52211;DHT22;38179;52.756;6.906;2024-02-21T03:56:13;8.20;99.90
52211;DHT22;38179;52.756;6.906;2024-02-21T03:58:39;8.20;99.90
52211;DHT22;38179;52.756;6.906;2024-02-21T04:01:05;8.20;99.90
52211;DHT22;38179;52.756;6.906;2024-02-21T04:03:30;8.20;99.90
52211;DHT22;38179;52.756;6.906;2024-02-21T04:05:56;8.20;99.90
52211;DHT22;38179;52.756;6.906;2024-02-21T04:08:23;8.20;99.90
52211;DHT22;38179;52.756;6.906;2024-02-21T04:10:49;8.20;99.90
52211;DHT22;38179;52.756;6.906;2024-02-21T04:13:14;8.20;99.90
52211;DHT22;38179;52.756;6.906;2024-02-21T04:15:40;8.20;99.90
52211;DHT22;38179;52.756;6.906;2024-02-21T04:18:06;8.20;99.90
52211;DHT22;38179;52.756;6.906;2024-02-21T04:20:32;8.20;99.90
52211;DHT22;38179;52.756;6.906;2024-02-21T04:22:58;8.20;99.90
52211;DHT22;38179;52.756;6.906;2024-02-21T04:25:24;8.20;99.90
52211;DHT22;38179;52.756;6.906;2024-02-21T04:27:50;8.20;99.90
52211;DHT22;38179;52.756;6.906;2024-02-21T04:30:15;8.20;99.90
52211;DHT22;38179;52.756;6.906;2024-02-21T04:32:41;8.20;99.90
52211;DHT22;38179;52.756;6.906;2024-02-21T04:35:07;8.20;99.90
52211;DHT22;38179;52.756;6.906;2024-02-21T04:37:33;8.20;99.90
52211;DHT22;38179;52.756;6.906;2024-02-21T04:39:59;8.20;99.90
52211;DHT22;38179;52.756;6.906;2024-02-21T04:42:25;8.20;99.90
52211;DHT22;38179;52.756;6.906;2024-02-21T04:44:50;8.20;99.90
52211;DHT22;38179;52.756;6.906;2024-02-21T04:47:16;8.20;99.90
52211;DHT22;38179;52.756;6.906;2024-02-21T04:49:42;8.20;99.90
52211;DHT22;38179;52.756;6.906;2024-02-21T04:52:07;8.20;99.90
52211;DHT22;38179;52.756;6.906;2024-02-21T04:54:33;8.20;99.90
52211;DHT22;38179;52.756;6.906;2024-02-21T04:57:01;8.20;99.90
52211;DHT22;38179;52.756;6.906;2024-02-21T04:59:26;8.20;99.90
52211;DHT22;38179;52.756;6.906;2024-02-21T05:01:52;8.20;99.90
52211;DHT22;38179;52.756;6.906;2024-02-21T05:04:18;8.20;99.90
52211;DHT22;38179;52.756;6.906;2024-02-21T05:06:44;8.20;99.90
52211;DHT22;38179;52.756;6.906;2024-02-21T05:09:10;8.20;99.90
52211;DHT22;38179;52.756;6.906;2024-02-21T05:11:36;8.30;99.90
52211;DHT22;38179;52.756;6.906;2024-02-21T05:14:03;8.30;99.90
52211;DHT22;38179;52.756;6.906;2024-02-21T05:16:30;8.30;99.90
52211;DHT22;38179;52.756;6.906;2024-02-21T05:18:56;8.30;99.90
52211;DHT22;38179;52.756;6.906;2024-02-21T05:21:25;8.30;99.90
52211;DHT22;38179;52.756;6.906;2024-02-21T05:23:51;8.30;99.90
52211;DHT22;38179;52.756;6.906;2024-02-21T05:26:24;8.30;99.90
52211;DHT22;38179;52.756;6.906;2024-02-21T05:28:50;8.30;99.90
52211;DHT22;38179;52.756;6.906;2024-02-21T05:31:17;8.30;99.90
52211;DHT22;38179;52.756;6.906;2024-02-21T05:33:44;8.30;99.90
52211;DHT22;38179;52.756;6.906;2024-02-21T05:36:09;8.30;99.90
52211;DHT22;38179;52.756;6.906;2024-02-21T05:38:36;8.30;99.90
52211;DHT22;38179;52.756;6.906;2024-02-21T05:41:01;8.30;99.90
52211;DHT22;38179;52.756;6.906;2024-02-21T05:43:27;8.30;99.90
52211;DHT22;38179;52.756;6.906;2024-02-21T05:45:53;8.30;99.90
52211;DHT22;38179;52.756;6.906;2024-02-21T05:48:19;8.30;99.90
52211;DHT22;38179;52.756;6.906;2024-02-21T05:50:45;8.40;99.90
52211;DHT22;38179;52.756;6.906;2024-02-21T05:53:10;8.30;99.90
52211;DHT22;38179;52.756;6.906;2024-02-21T05:55:36;8.40;99.90
52211;DHT22;38179;52.756;6.906;2024-02-21T05:58:02;8.30;99.90
52211;DHT22;38179;52.756;6.906;2024-02-21T06:00:28;8.30;99.90
52211;DHT22;38179;52.756;6.906;2024-02-21T06:02:55;8.30;99.90
52211;DHT22;38179;52.756;6.906;2024-02-21T06:05:20;8.30;99.90
52211;DHT22;38179;52.756;6.906;2024-02-21T06:07:46;8.30;99.90
52211;DHT22;38179;52.756;6.906;2024-02-21T06:10:12;8.30;99.90
52211;DHT22;38179;52.756;6.906;2024-02-21T06:12:38;8.30;99.90
52211;DHT22;38179;52.756;6.906;2024-02-21T06:15:04;8.30;99.90
52211;DHT22;38179;52.756;6.906;2024-02-21T06:17:29;8.30;99.90
52211;DHT22;38179;52.756;6.906;2024-02-21T06:19:55;8.40;99.90
52211;DHT22;38179;52.756;6.906;2024-02-21T06:22:21;8.30;99.90
52211;DHT22;38179;52.756;6.906;2024-02-21T06:24:46;8.30;99.90
52211;DHT22;38179;52.756;6.906;2024-02-21T06:27:12;8.30;99.90
52211;DHT22;38179;52.756;6.906;2024-02-21T06:29:40;8.30;99.90
52211;DHT22;38179;52.756;6.906;2024-02-21T06:32:05;8.30;99.90
52211;DHT22;38179;52.756;6.906;2024-02-21T06:34:31;8.40;99.90
52211;DHT22;38179;52.756;6.906;2024-02-21T06:36:57;8.40;99.90
52211;DHT22;38179;52.756;6.906;2024-02-21T06:39:23;8.30;99.90
52211;DHT22;38179;52.756;6.906;2024-02-21T06:41:49;8.30;99.90
52211;DHT22;38179;52.756;6.906;2024-02-21T06:44:17;8.30;99.90
52211;DHT22;38179;52.756;6.906;2024-02-21T06:46:42;8.30;99.90
52211;DHT22;38179;52.756;6.906;2024-02-21T06:49:08;8.40;99.90
52211;DHT22;38179;52.756;6.906;2024-02-21T06:51:34;8.40;99.90
52211;DHT22;38179;52.756;6.906;2024-02-21T06:54:00;8.40;99.90
52211;DHT22;38179;52.756;6.906;2024-02-21T06:56:26;8.30;99.90
52211;DHT22;38179;52.756;6.906;2024-02-21T06:58:55;8.40;99.90
52211;DHT22;38179;52.756;6.906;2024-02-21T07:01:21;8.40;99.90
52211;DHT22;38179;52.756;6.906;2024-02-21T07:03:47;8.50;99.90
52211;DHT22;38179;52.756;6.906;2024-02-21T07:06:12;8.30;99.90
52211;DHT22;38179;52.756;6.906;2024-02-21T07:08:38;8.30;99.90
52211;DHT22;38179;52.756;6.906;2024-02-21T07:11:05;8.30;99.90
52211;DHT22;38179;52.756;6.906;2024-02-21T07:13:31;8.30;99.90
52211;DHT22;38179;52.756;6.906;2024-02-21T07:15:57;8.30;99.90
52211;DHT22;38179;52.756;6.906;2024-02-21T07:18:23;8.30;99.90
52211;DHT22;38179;52.756;6.906;2024-02-21T07:20:51;8.30;99.90
52211;DHT22;38179;52.756;6.906;2024-02-21T07:23:17;8.30;99.90
52211;DHT22;38179;52.756;6.906;2024-02-21T07:25:42;8.30;99.90
52211;DHT22;38179;52.756;6.906;2024-02-21T07:28:08;8.20;99.90
52211;DHT22;38179;52.756;6.906;2024-02-21T07:30:36;8.20;99.90
52211;DHT22;38179;52.756;6.906;2024-02-21T07:33:02;8.10;99.90
52211;DHT22;38179;52.756;6.906;2024-02-21T07:35:28;8.10;99.90
52211;DHT22;38179;52.756;6.906;2024-02-21T07:37:54;8.10;99.90
52211;DHT22;38179;52.756;6.906;2024-02-21T07:40:19;8.20;99.90
52211;DHT22;38179;52.756;6.906;2024-02-21T07:42:45;8.10;99.90
52211;DHT22;38179;52.756;6.906;2024-02-21T07:45:11;8.10;99.90
52211;DHT22;38179;52.756;6.906;2024-02-21T07:47:37;8.00;99.90
52211;DHT22;38179;52.756;6.906;2024-02-21T07:50:03;8.10;99.90
52211;DHT22;38179;52.756;6.906;2024-02-21T07:52:29;8.10;99.90
52211;DHT22;38179;52.756;6.906;2024-02-21T07:54:55;8.10;99.90
52211;DHT22;38179;52.756;6.906;2024-02-21T07:57:21;8.10;99.90
52211;DHT22;38179;52.756;6.906;2024-02-21T07:59:47;8.20;99.90
52211;DHT22;38179;52.756;6.906;2024-02-21T08:02:14;8.10;99.90
52211;DHT22;38179;52.756;6.906;2024-02-21T08:04:41;8.10;99.90
52211;DHT22;38179;52.756;6.906;2024-02-21T08:07:07;8.30;99.90
52211;DHT22;38179;52.756;6.906;2024-02-21T08:09:32;8.30;99.90
52211;DHT22;38179;52.756;6.906;2024-02-21T08:11:58;8.10;99.90
52211;DHT22;38179;52.756;6.906;2024-02-21T08:14:24;8.10;99.90
52211;DHT22;38179;52.756;6.906;2024-02-21T08:16:53;8.20;99.90
52211;DHT22;38179;52.756;6.906;2024-02-21T08:19:20;8.20;99.90
52211;DHT22;38179;52.756;6.906;2024-02-21T08:21:46;8.10;99.90
52211;DHT22;38179;52.756;6.906;2024-02-21T08:24:15;8.10;99.90
52211;DHT22;38179;52.756;6.906;2024-02-21T08:26:41;8.10;99.90
52211;DHT22;38179;52.756;6.906;2024-02-21T08:29:07;8.10;99.90
52211;DHT22;38179;52.756;6.906;2024-02-21T08:31:33;8.10;99.90
52211;DHT22;38179;52.756;6.906;2024-02-21T08:34:00;8.10;99.90
52211;DHT22;38179;52.756;6.906;2024-02-21T08:36:33;8.10;99.90
52211;DHT22;38179;52.756;6.906;2024-02-21T08:39:00;8.10;99.90
52211;DHT22;38179;52.756;6.906;2024-02-21T08:41:26;8.10;99.90
52211;DHT22;38179;52.756;6.906;2024-02-21T08:43:53;8.10;99.90
52211;DHT22;38179;52.756;6.906;2024-02-21T08:46:25;8.10;99.90
52211;DHT22;38179;52.756;6.906;2024-02-21T08:48:52;8.10;99.90
52211;DHT22;38179;52.756;6.906;2024-02-21T08:51:18;8.20;99.90
52211;DHT22;38179;52.756;6.906;2024-02-21T08:53:47;8.30;99.90
52211;DHT22;38179;52.756;6.906;2024-02-21T08:56:13;8.20;99.90
52211;DHT22;38179;52.756;6.906;2024-02-21T08:58:40;8.20;99.90
52211;DHT22;38179;52.756;6.906;2024-02-21T09:01:09;8.20;99.90
52211;DHT22;38179;52.756;6.906;2024-02-21T09:03:38;8.30;99.90
52211;DHT22;38179;52.756;6.906;2024-02-21T09:06:07;8.20;99.90
52211;DHT22;38179;52.756;6.906;2024-02-21T09:08:35;8.30;99.90
52211;DHT22;38179;52.756;6.906;2024-02-21T09:11:01;8.30;99.90
52211;DHT22;38179;52.756;6.906;2024-02-21T09:13:27;8.30;99.90
52211;DHT22;38179;52.756;6.906;2024-02-21T09:15:53;8.30;99.90
52211;DHT22;38179;52.756;6.906;2024-02-21T09:18:18;8.30;99.90
52211;DHT22;38179;52.756;6.906;2024-02-21T09:20:45;8.30;99.90
52211;DHT22;38179;52.756;6.906;2024-02-21T09:23:11;8.30;99.90
52211;DHT22;38179;52.756;6.906;2024-02-21T09:25:37;8.30;99.90
52211;DHT22;38179;52.756;6.906;2024-02-21T09:28:03;8.50;99.90
52211;DHT22;38179;52.756;6.906;2024-02-21T09:30:29;8.30;99.90
52211;DHT22;38179;52.756;6.906;2024-02-21T09:32:55;8.30;99.90
52211;DHT22;38179;52.756;6.906;2024-02-21T09:35:24;8.30;99.90
52211;DHT22;38179;52.756;6.906;2024-02-21T09:37:52;8.30;99.90
52211;DHT22;38179;52.756;6.906;2024-02-21T09:40:18;8.30;99.90
52211;DHT22;38179;52.756;6.906;2024-02-21T09:42:44;8.30;99.90
52211;DHT22;38179;52.756;6.906;2024-02-21T09:45:21;8.40;99.90
52211;DHT22;38179;52.756;6.906;2024-02-21T09:50:24;8.40;99.90
52211;DHT22;38179;52.756;6.906;2024-02-21T09:52:52;8.40;99.90
52211;DHT22;38179;52.756;6.906;2024-02-21T09:55:19;8.40;99.90
52211;DHT22;38179;52.756;6.906;2024-02-21T09:57:45;8.40;99.90
52211;DHT22;38179;52.756;6.906;2024-02-21T10:00:11;8.50;99.90
52211;DHT22;38179;52.756;6.906;2024-02-21T10:02:39;8.50;99.90
52211;DHT22;38179;52.756;6.906;2024-02-21T10:05:05;8.50;99.90
52211;DHT22;38179;52.756;6.906;2024-02-21T10:07:34;8.50;99.90
52211;DHT22;38179;52.756;6.906;2024-02-21T10:10:03;8.50;99.90
52211;DHT22;38179;52.756;6.906;2024-02-21T10:12:29;8.50;99.90
52211;DHT22;38179;52.756;6.906;2024-02-21T10:15:05;8.50;99.90
52211;DHT22;38179;52.756;6.906;2024-02-21T10:17:35;8.50;99.90
52211;DHT22;38179;52.756;6.906;2024-02-21T10:20:09;8.50;99.90
52211;DHT22;38179;52.756;6.906;2024-02-21T10:22:35;8.50;99.90
52211;DHT22;38179;52.756;6.906;2024-02-21T10:25:14;8.50;99.90
52211;DHT22;38179;52.756;6.906;2024-02-21T10:27:40;8.50;99.90
52211;DHT22;38179;52.756;6.906;2024-02-21T10:30:08;8.60;99.90
52211;DHT22;38179;52.756;6.906;2024-02-21T10:32:51;8.50;99.90
52211;DHT22;38179;52.756;6.906;2024-02-21T10:35:28;8.60;99.90
52211;DHT22;38179;52.756;6.906;2024-02-21T10:37:56;8.60;99.90
52211;DHT22;38179;52.756;6.906;2024-02-21T10:40:26;8.60;99.90
52211;DHT22;38179;52.756;6.906;2024-02-21T10:42:59;8.70;99.90
52211;DHT22;38179;52.756;6.906;2024-02-21T10:47:56;8.70;99.90
52211;DHT22;38179;52.756;6.906;2024-02-21T10:50:25;8.70;99.90
52211;DHT22;38179;52.756;6.906;2024-02-21T10:53:16;8.70;99.90
52211;DHT22;38179;52.756;6.906;2024-02-21T10:55:50;8.70;99.90
52211;DHT22;38179;52.756;6.906;2024-02-21T10:58:19;8.80;99.90
52211;DHT22;38179;52.756;6.906;2024-02-21T11:00:45;8.80;99.90
52211;DHT22;38179;52.756;6.906;2024-02-21T11:03:11;8.90;99.90
52211;DHT22;38179;52.756;6.906;2024-02-21T11:05:38;8.90;99.90
52211;DHT22;38179;52.756;6.906;2024-02-21T11:08:06;8.90;99.90
52211;DHT22;38179;52.756;6.906;2024-02-21T11:10:31;8.90;99.90
52211;DHT22;38179;52.756;6.906;2024-02-21T11:13:07;9.00;99.90
52211;DHT22;38179;52.756;6.906;2024-02-21T11:15:33;9.00;99.90
52211;DHT22;38179;52.756;6.906;2024-02-21T11:17:59;9.00;99.90
52211;DHT22;38179;52.756;6.906;2024-02-21T11:20:37;9.00;99.90
52211;DHT22;38179;52.756;6.906;2024-02-21T11:23:04;9.00;99.90
52211;DHT22;38179;52.756;6.906;2024-02-21T11:25:30;9.00;99.90
52211;DHT22;38179;52.756;6.906;2024-02-21T11:28:03;9.00;99.90
52211;DHT22;38179;52.756;6.906;2024-02-21T11:30:32;9.10;99.90
52211;DHT22;38179;52.756;6.906;2024-02-21T11:33:05;9.00;99.90
52211;DHT22;38179;52.756;6.906;2024-02-21T11:35:32;9.10;99.90
52211;DHT22;38179;52.756;6.906;2024-02-21T11:38:12;9.10;99.90
52211;DHT22;38179;52.756;6.906;2024-02-21T11:40:45;9.10;99.90
52211;DHT22;38179;52.756;6.906;2024-02-21T11:43:11;9.10;99.90
52211;DHT22;38179;52.756;6.906;2024-02-21T11:45:37;9.00;99.90
52211;DHT22;38179;52.756;6.906;2024-02-21T11:48:06;9.00;99.90
52211;DHT22;38179;52.756;6.906;2024-02-21T11:50:33;9.00;99.90
52211;DHT22;38179;52.756;6.906;2024-02-21T11:52:59;9.00;99.90
52211;DHT22;38179;52.756;6.906;2024-02-21T11:55:26;9.00;99.90
52211;DHT22;38179;52.756;6.906;2024-02-21T11:57:52;9.00;99.90
52211;DHT22;38179;52.756;6.906;2024-02-21T12:00:19;9.00;99.90
52211;DHT22;38179;52.756;6.906;2024-02-21T12:02:49;9.10;99.90
52211;DHT22;38179;52.756;6.906;2024-02-21T12:05:15;9.10;99.90
52211;DHT22;38179;52.756;6.906;2024-02-21T12:07:41;9.10;99.90
52211;DHT22;38179;52.756;6.906;2024-02-21T12:10:12;9.10;99.90
52211;DHT22;38179;52.756;6.906;2024-02-21T12:12:38;9.10;99.90
52211;DHT22;38179;52.756;6.906;2024-02-21T12:15:05;9.10;99.90
52211;DHT22;38179;52.756;6.906;2024-02-21T12:17:36;9.10;99.90
52211;DHT22;38179;52.756;6.906;2024-02-21T12:20:02;9.20;99.90
52211;DHT22;38179;52.756;6.906;2024-02-21T12:22:35;9.20;99.90
52211;DHT22;38179;52.756;6.906;2024-02-21T12:25:04;9.20;99.90
52211;DHT22;38179;52.756;6.906;2024-02-21T12:27:40;9.10;99.90
52211;DHT22;38179;52.756;6.906;2024-02-21T12:30:07;9.20;99.90
52211;DHT22;38179;52.756;6.906;2024-02-21T12:32:35;9.20;99.90
52211;DHT22;38179;52.756;6.906;2024-02-21T12:35:01;9.20;99.90
52211;DHT22;38179;52.756;6.906;2024-02-21T12:37:28;9.20;99.90
52211;DHT22;38179;52.756;6.906;2024-02-21T12:39:54;9.20;99.90
52211;DHT22;38179;52.756;6.906;2024-02-21T12:42:20;9.20;99.90
52211;DHT22;38179;52.756;6.906;2024-02-21T12:44:45;9.20;99.90
52211;DHT22;38179;52.756;6.906;2024-02-21T12:47:11;9.20;99.90
52211;DHT22;38179;52.756;6.906;2024-02-21T12:49:37;9.20;99.90
52211;DHT22;38179;52.756;6.906;2024-02-21T12:52:03;9.20;99.90
52211;DHT22;38179;52.756;6.906;2024-02-21T12:54:29;9.10;99.90
52211;DHT22;38179;52.756;6.906;2024-02-21T12:56:56;9.10;99.90
52211;DHT22;38179;52.756;6.906;2024-02-21T12:59:22;9.10;99.90
52211;DHT22;38179;52.756;6.906;2024-02-21T13:01:48;9.10;99.90
52211;DHT22;38179;52.756;6.906;2024-02-21T13:04:14;9.00;99.90
52211;DHT22;38179;52.756;6.906;2024-02-21T13:06:39;9.00;99.90
52211;DHT22;38179;52.756;6.906;2024-02-21T13:09:05;9.00;99.90
52211;DHT22;38179;52.756;6.906;2024-02-21T13:11:34;9.00;99.90
52211;DHT22;38179;52.756;6.906;2024-02-21T13:14:00;8.90;99.90
52211;DHT22;38179;52.756;6.906;2024-02-21T13:16:26;8.90;99.90
52211;DHT22;38179;52.756;6.906;2024-02-21T13:18:54;9.00;99.90
52211;DHT22;38179;52.756;6.906;2024-02-21T13:21:20;9.00;99.90
52211;DHT22;38179;52.756;6.906;2024-02-21T13:23:45;9.00;99.90
52211;DHT22;38179;52.756;6.906;2024-02-21T13:26:11;9.00;99.90
52211;DHT22;38179;52.756;6.906;2024-02-21T13:28:38;9.00;99.90
52211;DHT22;38179;52.756;6.906;2024-02-21T13:31:04;9.00;99.90
52211;DHT22;38179;52.756;6.906;2024-02-21T13:33:29;9.00;99.90
52211;DHT22;38179;52.756;6.906;2024-02-21T13:35:55;9.10;99.90
52211;DHT22;38179;52.756;6.906;2024-02-21T13:38:21;9.10;99.90
52211;DHT22;38179;52.756;6.906;2024-02-21T13:40:47;9.10;99.90
52211;DHT22;38179;52.756;6.906;2024-02-21T13:43:12;9.10;99.90
52211;DHT22;38179;52.756;6.906;2024-02-21T13:45:38;9.10;99.90
52211;DHT22;38179;52.756;6.906;2024-02-21T13:48:07;9.10;99.90
52211;DHT22;38179;52.756;6.906;2024-02-21T13:50:36;9.10;99.90
52211;DHT22;38179;52.756;6.906;2024-02-21T13:53:08;9.10;99.90
52211;DHT22;38179;52.756;6.906;2024-02-21T13:55:35;9.10;99.90
52211;DHT22;38179;52.756;6.906;2024-02-21T13:58:00;9.10;99.90
52211;DHT22;38179;52.756;6.906;2024-02-21T14:00:26;9.00;99.90
52211;DHT22;38179;52.756;6.906;2024-02-21T14:02:52;9.00;99.90
52211;DHT22;38179;52.756;6.906;2024-02-21T14:05:19;9.10;99.90
52211;DHT22;38179;52.756;6.906;2024-02-21T14:07:45;9.00;99.90
52211;DHT22;38179;52.756;6.906;2024-02-21T14:10:11;9.10;99.90
52211;DHT22;38179;52.756;6.906;2024-02-21T14:12:37;9.00;99.90
52211;DHT22;38179;52.756;6.906;2024-02-21T14:15:04;9.10;99.90
52211;DHT22;38179;52.756;6.906;2024-02-21T14:17:30;9.00;99.90
52211;DHT22;38179;52.756;6.906;2024-02-21T14:19:56;9.10;99.90
52211;DHT22;38179;52.756;6.906;2024-02-21T14:22:22;9.10;99.90
52211;DHT22;38179;52.756;6.906;2024-02-21T14:24:47;9.10;99.90
52211;DHT22;38179;52.756;6.906;2024-02-21T14:27:13;9.10;99.90
52211;DHT22;38179;52.756;6.906;2024-02-21T14:29:39;9.10;99.90
52211;DHT22;38179;52.756;6.906;2024-02-21T14:32:04;9.10;99.90
52211;DHT22;38179;52.756;6.906;2024-02-21T14:34:31;9.10;99.90
52211;DHT22;38179;52.756;6.906;2024-02-21T14:36:57;9.10;99.90
52211;DHT22;38179;52.756;6.906;2024-02-21T14:39:22;9.10;99.90
52211;DHT22;38179;52.756;6.906;2024-02-21T14:41:48;9.10;99.90
52211;DHT22;38179;52.756;6.906;2024-02-21T14:44:14;9.10;99.90
52211;DHT22;38179;52.756;6.906;2024-02-21T14:46:40;9.10;99.90
52211;DHT22;38179;52.756;6.906;2024-02-21T14:49:05;9.10;99.90
52211;DHT22;38179;52.756;6.906;2024-02-21T14:51:31;9.10;99.90
52211;DHT22;38179;52.756;6.906;2024-02-21T14:53:57;9.10;99.90
52211;DHT22;38179;52.756;6.906;2024-02-21T14:56:23;9.10;99.90
52211;DHT22;38179;52.756;6.906;2024-02-21T14:58:49;9.10;99.90
52211;DHT22;38179;52.756;6.906;2024-02-21T15:01:15;9.10;99.90
52211;DHT22;38179;52.756;6.906;2024-02-21T15:03:41;9.10;99.90
52211;DHT22;38179;52.756;6.906;2024-02-21T15:06:08;9.10;99.90
52211;DHT22;38179;52.756;6.906;2024-02-21T15:08:34;9.10;99.90
52211;DHT22;38179;52.756;6.906;2024-02-21T15:10:59;9.20;99.90
52211;DHT22;38179;52.756;6.906;2024-02-21T15:13:25;9.20;99.90
52211;DHT22;38179;52.756;6.906;2024-02-21T15:15:52;9.20;99.90
52211;DHT22;38179;52.756;6.906;2024-02-21T15:18:17;9.20;99.90
52211;DHT22;38179;52.756;6.906;2024-02-21T15:20:44;9.20;99.90
52211;DHT22;38179;52.756;6.906;2024-02-21T15:23:10;9.20;99.90
52211;DHT22;38179;52.756;6.906;2024-02-21T15:25:36;9.20;99.90
52211;DHT22;38179;52.756;6.906;2024-02-21T15:28:03;9.20;99.90
52211;DHT22;38179;52.756;6.906;2024-02-21T15:30:30;9.20;99.90
52211;DHT22;38179;52.756;6.906;2024-02-21T15:33:00;9.20;99.90
52211;DHT22;38179;52.756;6.906;2024-02-21T15:35:29;9.30;99.90
52211;DHT22;38179;52.756;6.906;2024-02-21T15:37:55;9.30;99.90
52211;DHT22;38179;52.756;6.906;2024-02-21T15:40:24;9.30;99.90
52211;DHT22;38179;52.756;6.906;2024-02-21T15:42:50;9.30;99.90
52211;DHT22;38179;52.756;6.906;2024-02-21T15:45:16;9.30;99.90
52211;DHT22;38179;52.756;6.906;2024-02-21T15:47:41;9.30;99.90